Airfield :
LOGIN :

Register | Disclaimer

   EN    FR    IT 

 










Legend :    VFR   Marginal VFR   IFR   Intensive IFR   Very Intensive IFR
Visi :
Ceiling :
>= 8 km
>= 3000ft
5 to 8 km
1000 to 3000 ft
1500m to 5 km
500 to 1000 ft
800 to 1500m
200 to 500 ft
< 800m
< 200 ft
Symbols :   Thunderstorms  Fog  Heavy snow  Heavy precipitations  Wind > 20 kt
SIGMETs :     Misc.  Thunderstorms  Icing  Turbulence  Mountain Waves  Volcanic Ashes







- Airport Elevation : 436 ft
- IATA code : BTS


LZIB - Bratislava

CURRENT METAR :
  • 152130Z 02003KT CAVOK 14/12 Q1020

EXPIRED METARs :
  • 152100Z 03004KT CAVOK 14/12 Q1020
  • 152030Z 36003KT CAVOK 16/13 Q1021
  • 152000Z 02004KT CAVOK 16/13 Q1021
  • 151930Z 03005KT CAVOK 15/13 Q1021
  • 151900Z 03006KT CAVOK 17/13 Q1021

TAF TAF LZIB
Valid from the 15 at 18:00 until the 16 at 18:00 UTC


151700Z 1518/1618 17005KT CAVOK
BECMG 1519/1521 VRB02KT
TEMPO 1600/1607 2500 BR FEW003 SCT014
PROB40 1602/1606 1300 BCFG BKN002
BECMG 1609/1611 30005KT 9999 FEW040
No reported NOTAMs for that airfield.



MET'MAP, your aeronautical weather chart ! - Copyright ORBIFLY December 2007 - Disclaimer

ORBIFLY MET'MAP TEAM :

Programming & Development : Alexandra Zaïnal
Concept & Development : Baudouin d'Aumeries
Co-Development & Prog : Marc-Olivier Méhu
Technical & hardware support : Manuel Goepfert

Contact : metmap@orbifly.com




SOURCES & CREDITS :

   NOAA